createdAt,value
2022-11-26T00:00:44.828Z,19.37
2022-11-26T00:03:21.349Z,23.10
2022-11-26T00:05:55.106Z,25.30
2022-11-26T00:08:26.439Z,20.80
2022-11-26T00:10:55.714Z,24.73
2022-11-26T00:13:26.240Z,25.10
2022-11-26T00:15:57.981Z,28.53
2022-11-26T00:18:28.812Z,26.43
2022-11-26T00:21:04.850Z,22.93
2022-11-26T00:23:35.872Z,27.53
2022-11-26T00:26:05.918Z,30.17
2022-11-26T00:28:35.449Z,31.70
2022-11-26T00:31:05.456Z,25.37
2022-11-26T00:33:34.818Z,27.83
2022-11-26T00:36:15.572Z,33.87
2022-11-26T00:38:51.833Z,36.63
2022-11-26T00:41:23.759Z,23.93
2022-11-26T00:43:55.096Z,29.47
2022-11-26T00:46:23.828Z,28.37
2022-11-26T00:48:51.949Z,25.37
2022-11-26T00:51:24.337Z,27.50
2022-11-26T00:53:55.643Z,23.90
2022-11-26T00:56:25.317Z,25.73
2022-11-26T00:58:53.409Z,24.97
2022-11-26T01:01:25.059Z,26.10
2022-11-26T01:03:55.541Z,23.57
2022-11-26T01:06:30.038Z,27.20
2022-11-26T01:09:02.640Z,31.23
2022-11-26T01:11:31.410Z,23.10
2022-11-26T01:14:00.241Z,30.17
2022-11-26T01:16:39.567Z,31.43
2022-11-26T01:19:11.122Z,22.23
2022-11-26T01:21:43.871Z,19.37
2022-11-26T01:24:14.170Z,20.90
2022-11-26T01:26:44.949Z,27.47
2022-11-26T01:29:16.616Z,34.37
2022-11-26T01:31:45.508Z,24.47
2022-11-26T01:34:13.561Z,24.80
2022-11-26T01:36:47.760Z,28.13
2022-11-26T01:39:17.768Z,22.60
2022-11-26T01:41:53.510Z,26.53
2022-11-26T01:44:23.752Z,25.13
2022-11-26T01:46:54.642Z,27.97
2022-11-26T01:49:25.805Z,28.53
2022-11-26T01:52:03.922Z,22.37
2022-11-26T01:54:37.644Z,32.73
2022-11-26T01:57:12.031Z,21.07
2022-11-26T01:59:45.489Z,20.43
2022-11-26T02:02:18.081Z,24.60
2022-11-26T02:04:57.097Z,28.70
2022-11-26T02:07:27.518Z,22.87
2022-11-26T02:09:56.498Z,15.80
2022-11-26T02:12:24.506Z,27.43
2022-11-26T02:14:53.428Z,32.60
2022-11-26T02:17:28.217Z,26.23
2022-11-26T02:20:33.580Z,25.67
2022-11-26T02:27:01.889Z,31.60
2022-11-26T02:29:57.412Z,26.80
2022-11-26T02:32:33.578Z,16.60
2022-11-26T02:35:06.652Z,31.37
2022-11-26T02:37:40.098Z,38.63
2022-11-26T02:40:16.931Z,22.60
2022-11-26T02:42:45.540Z,31.17
2022-11-26T02:45:26.068Z,30.03
2022-11-26T02:47:58.225Z,20.53
2022-11-26T02:50:30.666Z,25.37
2022-11-26T02:53:03.377Z,24.60
2022-11-26T02:55:36.926Z,30.13
2022-11-26T02:58:06.935Z,25.43
2022-11-26T03:00:42.495Z,26.40
2022-11-26T03:03:22.836Z,37.97
2022-11-26T03:05:57.162Z,25.93
2022-11-26T03:08:27.106Z,19.13
2022-11-26T03:11:02.302Z,23.87
2022-11-26T03:13:31.210Z,27.00
2022-11-26T03:16:00.614Z,22.90
2022-11-26T03:18:28.791Z,29.63
2022-11-26T03:20:57.242Z,26.53
2022-11-26T03:23:25.745Z,30.17
2022-11-26T03:25:53.735Z,34.97
2022-11-26T03:28:22.638Z,32.03
2022-11-26T03:30:51.094Z,27.60
2022-11-26T03:33:21.473Z,30.13
2022-11-26T03:35:50.901Z,40.43
2022-11-26T03:38:21.207Z,25.40
2022-11-26T03:40:57.405Z,41.60
2022-11-26T03:43:25.554Z,24.00
2022-11-26T03:45:53.690Z,23.47
2022-11-26T03:48:23.691Z,32.10
2022-11-26T03:50:52.543Z,27.83
2022-11-26T03:53:20.990Z,19.43
2022-11-26T03:55:49.611Z,21.00
2022-11-26T03:58:19.550Z,21.60
2022-11-26T04:00:47.559Z,37.87
2022-11-26T04:03:19.118Z,31.73
2022-11-26T04:05:48.593Z,25.57
2022-11-26T04:08:20.861Z,25.77
2022-11-26T04:10:49.059Z,27.33
2022-11-26T04:13:17.048Z,31.23
2022-11-26T04:15:48.235Z,28.83
2022-11-26T04:18:16.574Z,28.80
2022-11-26T04:20:47.652Z,35.13
2022-11-26T04:23:23.570Z,27.67
2022-11-26T04:25:55.207Z,22.03
2022-11-26T04:28:23.329Z,30.90
2022-11-26T04:30:58.616Z,28.20
2022-11-26T04:33:28.300Z,24.53
2022-11-26T04:35:56.890Z,25.07
2022-11-26T04:38:26.637Z,31.50
2022-11-26T04:40:56.035Z,34.97
2022-11-26T04:43:24.045Z,32.00
2022-11-26T04:45:52.533Z,20.17
2022-11-26T04:48:23.329Z,33.67
2022-11-26T04:50:57.643Z,32.77
2022-11-26T04:53:37.958Z,23.00
2022-11-26T04:56:06.526Z,27.67
2022-11-26T04:58:46.580Z,32.90
2022-11-26T05:01:15.769Z,30.43
2022-11-26T05:04:09.510Z,38.83
2022-11-26T05:06:41.256Z,26.33
2022-11-26T05:09:11.253Z,26.37
2022-11-26T05:11:39.550Z,27.23
2022-11-26T05:14:08.164Z,31.40
2022-11-26T05:16:39.485Z,29.33
2022-11-26T05:19:08.142Z,35.67
2022-11-26T05:21:36.114Z,29.50
2022-11-26T05:24:05.064Z,37.60
2022-11-26T05:26:38.328Z,34.50
2022-11-26T05:29:06.536Z,32.87
2022-11-26T05:31:34.650Z,37.73
2022-11-26T05:34:05.425Z,32.67
2022-11-26T05:36:33.443Z,30.33
2022-11-26T05:39:02.001Z,26.27
2022-11-26T05:41:30.532Z,35.63
2022-11-26T05:44:02.714Z,29.57
2022-11-26T05:46:30.976Z,31.47
2022-11-26T05:49:02.468Z,31.67
2022-11-26T05:51:30.532Z,31.63
2022-11-26T05:53:58.565Z,37.40
2022-11-26T05:56:35.060Z,43.07
2022-11-26T05:59:07.710Z,38.73
2022-11-26T06:01:36.738Z,37.43
2022-11-26T06:04:05.057Z,32.70
2022-11-26T06:06:33.540Z,29.77
2022-11-26T06:09:01.946Z,43.30
2022-11-26T06:11:30.152Z,27.30
2022-11-26T06:13:58.304Z,29.30
2022-11-26T06:16:28.420Z,31.27
2022-11-26T06:18:57.293Z,32.83
2022-11-26T06:21:26.963Z,29.70
2022-11-26T06:23:59.340Z,44.87
2022-11-26T06:26:28.753Z,36.70
2022-11-26T06:28:57.009Z,34.10
2022-11-26T06:31:33.376Z,33.57
2022-11-26T06:34:01.645Z,31.33
2022-11-26T06:36:29.626Z,32.07
2022-11-26T06:39:00.264Z,45.17
2022-11-26T06:41:28.448Z,33.70
2022-11-26T06:43:56.965Z,32.03
2022-11-26T06:46:25.032Z,35.17
2022-11-26T06:48:54.407Z,32.03
2022-11-26T06:51:28.040Z,31.60
2022-11-26T06:53:56.580Z,29.67
2022-11-26T06:56:24.642Z,31.87
2022-11-26T06:58:55.637Z,34.00
2022-11-26T07:01:25.750Z,37.73
2022-11-26T07:03:56.328Z,33.57
2022-11-26T07:06:26.710Z,34.83
2022-11-26T07:08:57.439Z,38.70
2022-11-26T07:11:27.815Z,39.10
2022-11-26T07:13:55.986Z,29.77
2022-11-26T07:16:24.400Z,33.50
2022-11-26T07:19:04.155Z,26.07
2022-11-26T07:21:32.745Z,25.60
2022-11-26T07:24:01.165Z,33.90
2022-11-26T07:26:31.937Z,30.43
2022-11-26T07:29:03.212Z,32.03
2022-11-26T07:31:31.288Z,36.70
2022-11-26T07:34:00.675Z,22.33
2022-11-26T07:36:39.124Z,24.13
2022-11-26T07:39:07.735Z,31.40
2022-11-26T07:41:38.350Z,40.13
2022-11-26T07:44:06.667Z,24.37
2022-11-26T07:46:34.743Z,36.77
2022-11-26T07:49:04.577Z,31.30
2022-11-26T07:51:36.651Z,30.53
2022-11-26T07:54:10.271Z,27.07
2022-11-26T07:56:38.945Z,30.40
2022-11-26T07:59:12.177Z,25.60
2022-11-26T08:01:40.440Z,29.77
2022-11-26T08:04:12.149Z,34.40
2022-11-26T08:06:44.860Z,25.93
2022-11-26T08:09:13.220Z,29.77
2022-11-26T08:11:43.295Z,27.10
2022-11-26T08:14:13.716Z,30.47
2022-11-26T08:16:41.956Z,26.50
2022-11-26T08:19:14.607Z,26.67
2022-11-26T08:21:45.414Z,31.23
2022-11-26T08:24:15.468Z,33.03
2022-11-26T08:26:47.555Z,27.47
2022-11-26T08:29:16.084Z,24.87
2022-11-26T08:31:46.760Z,28.83
2022-11-26T08:34:17.251Z,32.43
2022-11-26T08:36:47.391Z,31.87
2022-11-26T08:39:19.492Z,26.63
2022-11-26T08:41:52.652Z,24.70
2022-11-26T08:44:21.362Z,23.40
2022-11-26T08:46:49.908Z,26.90
2022-11-26T08:49:19.344Z,33.90
2022-11-26T08:51:50.052Z,27.20
2022-11-26T08:54:18.129Z,18.47
2022-11-26T08:56:48.851Z,26.90
2022-11-26T08:59:19.827Z,38.27
2022-11-26T09:01:48.086Z,21.50
2022-11-26T09:04:16.132Z,23.70
2022-11-26T09:06:45.516Z,16.33
2022-11-26T09:09:13.761Z,22.00
2022-11-26T09:11:44.612Z,21.00
2022-11-26T09:14:21.449Z,28.83
2022-11-26T09:16:52.764Z,22.77
2022-11-26T09:19:21.080Z,21.77
2022-11-26T09:21:50.838Z,26.40
2022-11-26T09:24:19.749Z,24.07
2022-11-26T09:26:49.616Z,20.83
2022-11-26T09:29:21.437Z,17.73
2022-11-26T09:34:40.205Z,26.67
2022-11-26T09:37:09.957Z,16.83
2022-11-26T09:39:38.523Z,24.50
2022-11-26T09:42:08.488Z,29.50
2022-11-26T09:44:57.790Z,21.30
2022-11-26T09:47:30.221Z,16.93
2022-11-26T09:50:07.369Z,18.10
2022-11-26T09:52:44.412Z,25.60
2022-11-26T09:55:19.221Z,21.50
2022-11-26T09:57:55.039Z,19.50
2022-11-26T10:00:28.677Z,13.83
2022-11-26T10:02:58.709Z,14.70
2022-11-26T10:05:49.062Z,14.57
2022-11-26T10:08:38.233Z,11.50
2022-11-26T10:11:11.769Z,14.77
2022-11-26T10:13:48.689Z,17.03
2022-11-26T10:16:27.565Z,11.80
2022-11-26T10:19:11.353Z,16.90
2022-11-26T10:21:58.656Z,15.20
2022-11-26T10:24:33.043Z,10.80
2022-11-26T10:27:12.419Z,15.73
2022-11-26T10:29:43.731Z,22.43
2022-11-26T10:32:22.226Z,16.77
2022-11-26T10:34:54.473Z,13.10
2022-11-26T10:37:25.788Z,15.20
2022-11-26T10:40:19.368Z,13.67
2022-11-26T10:43:01.163Z,19.30
2022-11-26T10:48:26.550Z,20.73
2022-11-26T10:51:06.101Z,14.67
2022-11-26T10:53:52.117Z,10.67
2022-11-26T10:56:38.455Z,12.07
2022-11-26T10:59:18.744Z,9.43
2022-11-26T11:01:51.531Z,12.47
2022-11-26T11:04:31.237Z,9.43
2022-11-26T11:07:00.003Z,15.50
2022-11-26T11:09:34.500Z,14.10
2022-11-26T11:12:23.052Z,11.50
2022-11-26T11:14:53.510Z,13.00
2022-11-26T11:17:36.934Z,11.53
2022-11-26T11:20:29.562Z,14.57
2022-11-26T11:23:31.104Z,13.97
2022-11-26T11:26:14.696Z,12.63
2022-11-26T11:28:52.910Z,15.63
2022-11-26T11:31:24.470Z,15.83
2022-11-26T11:34:12.123Z,20.37
2022-11-26T11:36:40.612Z,19.13
2022-11-26T11:39:29.632Z,18.10
2022-11-26T11:41:59.380Z,8.37
2022-11-26T11:44:39.098Z,20.20
2022-11-26T11:47:22.748Z,8.20
2022-11-26T11:50:17.213Z,19.60
2022-11-26T11:52:55.013Z,11.30
2022-11-26T11:55:30.273Z,16.87
2022-11-26T11:58:11.758Z,15.40
2022-11-26T12:00:53.827Z,8.57
2022-11-26T12:03:40.434Z,14.63
2022-11-26T12:06:19.902Z,13.33
2022-11-26T12:08:59.563Z,13.07
2022-11-26T12:11:37.032Z,10.70
2022-11-26T12:14:13.192Z,16.93
2022-11-26T12:16:48.441Z,13.23
2022-11-26T12:19:25.954Z,13.07
2022-11-26T12:22:00.169Z,11.50
2022-11-26T12:24:37.926Z,16.60
2022-11-26T12:27:15.172Z,15.37
2022-11-26T12:29:48.053Z,16.63
2022-11-26T12:32:24.933Z,11.63
2022-11-26T12:37:41.885Z,12.73
2022-11-26T12:40:23.709Z,16.37
2022-11-26T12:42:59.565Z,15.50
2022-11-26T12:45:41.424Z,11.43
2022-11-26T12:48:23.171Z,15.10
2022-11-26T12:50:56.600Z,12.50
2022-11-26T12:53:34.854Z,14.73
2022-11-26T12:56:11.136Z,17.43
2022-11-26T12:58:49.303Z,21.23
2022-11-26T13:01:18.402Z,37.17
2022-11-26T13:03:59.525Z,11.87
2022-11-26T13:07:00.641Z,16.47
2022-11-26T13:09:43.579Z,18.17
2022-11-26T13:12:19.902Z,18.97
2022-11-26T13:14:55.025Z,10.37
2022-11-26T13:17:28.830Z,19.73
2022-11-26T13:20:08.362Z,14.83
2022-11-26T13:22:54.109Z,15.63
2022-11-26T13:25:52.626Z,16.50
2022-11-26T13:28:35.095Z,10.27
2022-11-26T13:31:22.545Z,15.10
2022-11-26T13:34:16.910Z,12.53
2022-11-26T13:37:38.603Z,12.60
2022-11-26T13:40:36.321Z,17.37
2022-11-26T13:43:25.612Z,24.17
2022-11-26T13:46:21.648Z,23.37
2022-11-26T13:48:58.540Z,16.13
2022-11-26T13:51:34.528Z,10.37
2022-11-26T13:54:12.428Z,14.90
2022-11-26T13:56:43.190Z,13.27
2022-11-26T13:59:17.957Z,16.00
2022-11-26T14:01:47.773Z,22.97
2022-11-26T14:04:36.545Z,14.63
2022-11-26T14:07:23.437Z,12.67
2022-11-26T14:09:59.874Z,21.03
2022-11-26T14:13:01.925Z,11.83
2022-11-26T14:15:55.606Z,19.90
2022-11-26T14:18:58.884Z,13.73
2022-11-26T14:21:30.393Z,11.13
2022-11-26T14:24:00.992Z,18.53
2022-11-26T14:26:36.245Z,12.27
2022-11-26T14:29:17.413Z,14.10
2022-11-26T14:31:51.843Z,13.20
2022-11-26T14:34:30.588Z,11.43
2022-11-26T14:37:00.160Z,11.93
2022-11-26T14:39:29.962Z,10.23
2022-11-26T14:42:05.547Z,12.23
2022-11-26T14:44:34.691Z,6.83
2022-11-26T14:47:11.710Z,20.53
2022-11-26T14:49:42.549Z,18.70
2022-11-26T14:52:19.753Z,15.33
2022-11-26T14:54:51.798Z,17.67
2022-11-26T14:57:28.258Z,10.90
2022-11-26T15:00:22.997Z,15.50
2022-11-26T15:02:51.239Z,10.13
2022-11-26T15:05:21.561Z,10.53
2022-11-26T15:08:00.099Z,14.63
2022-11-26T15:10:31.562Z,13.03
2022-11-26T15:13:09.559Z,12.80
2022-11-26T15:15:39.954Z,9.17
2022-11-26T15:18:16.848Z,10.00
2022-11-26T15:20:48.933Z,14.37
2022-11-26T15:23:19.031Z,6.97
2022-11-26T15:25:52.450Z,7.00
2022-11-26T15:28:25.190Z,8.73
2022-11-26T15:31:01.621Z,14.50
2022-11-26T15:33:32.924Z,11.37
2022-11-26T15:36:04.663Z,9.63
2022-11-26T15:38:35.688Z,12.63
2022-11-26T15:41:07.997Z,13.27
2022-11-26T15:43:43.683Z,9.27
2022-11-26T15:46:15.593Z,14.27
2022-11-26T15:48:53.191Z,10.77
2022-11-26T15:51:30.695Z,12.10
2022-11-26T15:54:03.853Z,11.20
2022-11-26T15:56:34.919Z,10.20
2022-11-26T15:59:08.472Z,9.77
2022-11-26T16:01:38.332Z,9.97
2022-11-26T16:04:09.365Z,10.70
2022-11-26T16:06:40.301Z,10.40
2022-11-26T16:09:27.872Z,7.40
2022-11-26T16:11:59.776Z,9.03
2022-11-26T16:14:34.356Z,10.80
2022-11-26T16:17:08.695Z,15.13
2022-11-26T16:19:38.098Z,12.50
2022-11-26T16:22:09.762Z,11.63
2022-11-26T16:24:40.914Z,12.17
2022-11-26T16:27:30.753Z,10.90
2022-11-26T16:30:02.482Z,12.33
2022-11-26T16:32:30.546Z,10.30
2022-11-26T16:34:58.588Z,13.67
2022-11-26T16:37:28.718Z,13.33
2022-11-26T16:40:02.843Z,12.87
2022-11-26T16:42:32.401Z,7.43
2022-11-26T16:45:04.363Z,7.00
2022-11-26T16:47:35.789Z,7.83
2022-11-26T16:50:04.189Z,10.10
2022-11-26T16:55:22.739Z,9.50
2022-11-26T16:57:54.033Z,21.80
2022-11-26T17:00:26.053Z,13.80
2022-11-26T17:02:55.151Z,6.83
2022-11-26T17:05:24.565Z,12.23
2022-11-26T17:07:58.016Z,4.80
2022-11-26T17:10:28.336Z,8.53
2022-11-26T17:12:59.409Z,14.63
2022-11-26T17:15:28.841Z,10.00
2022-11-26T17:18:04.384Z,12.63
2022-11-26T17:20:32.756Z,10.50
2022-11-26T17:23:00.747Z,11.30
2022-11-26T17:25:28.982Z,6.33
2022-11-26T17:27:56.954Z,14.70
2022-11-26T17:30:25.524Z,8.00
2022-11-26T17:32:55.357Z,6.97
2022-11-26T17:35:23.448Z,10.57
2022-11-26T17:37:51.997Z,14.40
2022-11-26T17:40:22.948Z,10.23
2022-11-26T17:42:51.794Z,11.50
2022-11-26T17:45:20.524Z,12.33
2022-11-26T17:47:49.166Z,19.63
2022-11-26T17:50:24.305Z,9.30
2022-11-26T17:52:53.580Z,11.30
2022-11-26T17:55:24.062Z,16.33
2022-11-26T17:57:55.225Z,6.53
2022-11-26T18:00:25.510Z,11.07
2022-11-26T18:02:54.040Z,14.87
2022-11-26T18:05:26.386Z,5.93
2022-11-26T18:07:55.315Z,12.30
2022-11-26T18:10:32.140Z,8.90
2022-11-26T18:13:00.563Z,14.43
2022-11-26T18:15:28.715Z,12.90
2022-11-26T18:17:57.289Z,12.43
2022-11-26T18:20:31.733Z,13.33
2022-11-26T18:23:01.698Z,12.83
2022-11-26T18:25:40.338Z,11.30
2022-11-26T18:28:08.422Z,9.27
2022-11-26T18:30:36.487Z,8.63
2022-11-26T18:33:05.402Z,15.60
2022-11-26T18:35:34.865Z,12.43
2022-11-26T18:38:06.186Z,16.73
2022-11-26T18:40:35.480Z,11.53
2022-11-26T18:43:03.527Z,7.53
2022-11-26T18:45:32.353Z,9.27
2022-11-26T18:48:01.865Z,11.20
2022-11-26T18:50:30.051Z,13.30
2022-11-26T18:53:02.049Z,7.53
2022-11-26T18:55:30.102Z,11.83
2022-11-26T18:57:58.161Z,9.03
2022-11-26T19:00:26.977Z,13.67
2022-11-26T19:02:55.032Z,13.03
2022-11-26T19:05:23.534Z,12.87
2022-11-26T19:07:54.297Z,8.10
2022-11-26T19:10:24.037Z,15.70
2022-11-26T19:12:53.351Z,16.13
2022-11-26T19:15:21.419Z,13.40
2022-11-26T19:17:49.865Z,8.37
2022-11-26T19:20:18.256Z,11.33
2022-11-26T19:22:46.361Z,7.30
2022-11-26T19:25:14.443Z,6.63
2022-11-26T19:27:44.645Z,10.17
2022-11-26T19:30:17.621Z,6.13
2022-11-26T19:32:45.843Z,21.57
2022-11-26T19:35:13.911Z,8.70
2022-11-26T19:37:41.962Z,9.90
2022-11-26T19:40:11.972Z,6.83
2022-11-26T19:42:42.186Z,10.23
2022-11-26T19:45:13.065Z,11.67
2022-11-26T19:47:41.149Z,5.70
2022-11-26T19:50:10.323Z,8.13
2022-11-26T19:52:47.923Z,10.20
2022-11-26T19:55:16.401Z,14.70
2022-11-26T19:57:44.930Z,17.43
2022-11-26T20:00:15.514Z,14.23
2022-11-26T20:02:43.968Z,7.33
2022-11-26T20:05:12.624Z,6.17
2022-11-26T20:07:40.960Z,9.90
2022-11-26T20:10:09.970Z,6.13
2022-11-26T20:12:41.041Z,11.33
2022-11-26T20:15:10.870Z,7.90
2022-11-26T20:17:40.370Z,9.70
2022-11-26T20:20:10.106Z,13.57
2022-11-26T20:22:39.473Z,11.90
2022-11-26T20:25:09.058Z,13.03
2022-11-26T20:27:37.112Z,8.10
2022-11-26T20:30:06.055Z,15.30
2022-11-26T20:32:35.098Z,9.60
2022-11-26T20:35:04.919Z,7.70
2022-11-26T20:37:33.583Z,11.50
2022-11-26T20:40:02.074Z,6.90
2022-11-26T20:42:30.912Z,5.70
2022-11-26T20:44:58.889Z,10.97
2022-11-26T20:47:27.286Z,9.43
2022-11-26T20:49:55.481Z,10.13
2022-11-26T20:52:25.172Z,9.67
2022-11-26T20:54:54.103Z,6.20
2022-11-26T20:57:23.500Z,17.93
2022-11-26T20:59:51.679Z,10.20
2022-11-26T21:02:19.805Z,11.60
2022-11-26T21:04:47.909Z,7.73
2022-11-26T21:07:16.219Z,12.40
2022-11-26T21:09:46.877Z,8.90
2022-11-26T21:12:15.042Z,5.43
2022-11-26T21:14:44.015Z,13.37
2022-11-26T21:17:14.564Z,12.97
2022-11-26T21:19:42.680Z,12.13
2022-11-26T21:22:10.710Z,8.47
2022-11-26T21:24:38.768Z,7.87
2022-11-26T21:27:08.110Z,11.67
2022-11-26T21:29:36.802Z,5.50
2022-11-26T21:32:05.539Z,7.10
2022-11-26T21:34:34.286Z,15.07
2022-11-26T21:37:02.304Z,12.13
2022-11-26T21:39:31.441Z,7.03
2022-11-26T21:42:01.721Z,15.10
2022-11-26T21:44:32.428Z,5.97
2022-11-26T21:47:02.618Z,12.30
2022-11-26T21:49:31.228Z,12.83
2022-11-26T21:51:59.849Z,11.40
2022-11-26T21:54:27.901Z,6.73
2022-11-26T21:56:55.872Z,9.87
2022-11-26T21:59:25.467Z,9.93
2022-11-26T22:01:54.844Z,12.20
2022-11-26T22:04:23.342Z,9.07
2022-11-26T22:06:54.228Z,7.47
2022-11-26T22:09:22.404Z,4.73
2022-11-26T22:11:50.414Z,14.33
2022-11-26T22:14:22.245Z,6.60
2022-11-26T22:16:53.931Z,8.90
2022-11-26T22:19:22.546Z,13.03
2022-11-26T22:21:50.504Z,18.10
2022-11-26T22:24:20.352Z,9.30
2022-11-26T22:26:49.289Z,10.30
2022-11-26T22:29:19.031Z,14.47
2022-11-26T22:31:48.761Z,7.93
2022-11-26T22:34:22.322Z,9.33
2022-11-26T22:36:50.780Z,11.60
2022-11-26T22:39:20.153Z,6.57
2022-11-26T22:41:51.730Z,12.60
2022-11-26T22:44:22.357Z,21.07
2022-11-26T22:46:50.657Z,9.63
2022-11-26T22:49:22.613Z,13.00
2022-11-26T22:51:51.232Z,8.80
2022-11-26T22:54:21.212Z,12.40
2022-11-26T22:56:57.084Z,14.20
2022-11-26T22:59:27.830Z,11.63
2022-11-26T23:01:56.989Z,12.57
2022-11-26T23:04:26.749Z,9.50
2022-11-26T23:06:55.620Z,5.00
2022-11-26T23:09:26.176Z,7.07
2022-11-26T23:11:54.682Z,6.70
2022-11-26T23:14:26.120Z,6.70
2022-11-26T23:19:40.684Z,7.70
2022-11-26T23:22:12.232Z,13.20
2022-11-26T23:24:42.503Z,13.80
2022-11-26T23:27:11.110Z,6.23
2022-11-26T23:29:39.302Z,4.97
2022-11-26T23:32:08.080Z,12.60
2022-11-26T23:34:36.201Z,6.63
2022-11-26T23:37:06.474Z,10.23
2022-11-26T23:39:34.912Z,4.53
2022-11-26T23:42:05.583Z,7.90
2022-11-26T23:44:33.767Z,7.73
2022-11-26T23:47:03.027Z,11.70
2022-11-26T23:49:33.938Z,6.53
2022-11-26T23:52:06.179Z,11.93
2022-11-26T23:54:37.316Z,6.83
2022-11-26T23:57:09.184Z,5.77
2022-11-26T23:59:43.205Z,6.60
